sensor_id;sensor_type;location;lat;lon;timestamp;pressure;altitude;pressure_sealevel;temperature;humidity
3206;BME280;1615;53.602;11.418;2023-07-08T00:00:10;101804.13;;;19.17;100.00
3206;BME280;1615;53.602;11.418;2023-07-08T00:02:35;101787.31;;;19.13;100.00
3206;BME280;1615;53.602;11.418;2023-07-08T00:05:01;101707.44;;;18.63;100.00
3206;BME280;1615;53.602;11.418;2023-07-08T00:07:26;101725.59;;;18.77;100.00
3206;BME280;1615;53.602;11.418;2023-07-08T00:09:51;101753.72;;;18.93;100.00
3206;BME280;1615;53.602;11.418;2023-07-08T00:12:17;101762.06;;;18.93;100.00
3206;BME280;1615;53.602;11.418;2023-07-08T00:14:42;101751.28;;;18.83;100.00
3206;BME280;1615;53.602;11.418;2023-07-08T00:17:12;101651.25;;;18.10;100.00
3206;BME280;1615;53.602;11.418;2023-07-08T00:19:40;101747.34;;;18.75;100.00
3206;BME280;1615;53.602;11.418;2023-07-08T00:22:13;101755.84;;;18.79;100.00
3206;BME280;1615;53.602;11.418;2023-07-08T00:24:42;101688.59;;;18.34;100.00
3206;BME280;1615;53.602;11.418;2023-07-08T00:27:10;101776.94;;;18.88;100.00
3206;BME280;1615;53.602;11.418;2023-07-08T00:29:37;101729.34;;;18.56;100.00
3206;BME280;1615;53.602;11.418;2023-07-08T00:32:11;101800.16;;;18.84;100.00
3206;BME280;1615;53.602;11.418;2023-07-08T00:34:37;101684.94;;;18.25;100.00
3206;BME280;1615;53.602;11.418;2023-07-08T00:37:03;101747.63;;;18.57;100.00
3206;BME280;1615;53.602;11.418;2023-07-08T00:39:31;101698.16;;;18.20;100.00
3206;BME280;1615;53.602;11.418;2023-07-08T00:41:59;101764.19;;;18.70;100.00
3206;BME280;1615;53.602;11.418;2023-07-08T00:44:25;101629.16;;;17.88;100.00
3206;BME280;1615;53.602;11.418;2023-07-08T00:47:08;101762.34;;;18.66;100.00
3206;BME280;1615;53.602;11.418;2023-07-08T00:49:39;101759.09;;;18.64;100.00
3206;BME280;1615;53.602;11.418;2023-07-08T00:54:52;101741.06;;;18.44;100.00
3206;BME280;1615;53.602;11.418;2023-07-08T00:57:18;101735.00;;;18.42;100.00
3206;BME280;1615;53.602;11.418;2023-07-08T01:00:02;101633.63;;;17.67;100.00
3206;BME280;1615;53.602;11.418;2023-07-08T01:02:29;101678.81;;;17.98;100.00
3206;BME280;1615;53.602;11.418;2023-07-08T01:05:08;101768.16;;;18.47;100.00
3206;BME280;1615;53.602;11.418;2023-07-08T01:07:36;101755.56;;;18.41;100.00
3206;BME280;1615;53.602;11.418;2023-07-08T01:10:04;101640.81;;;17.68;100.00
3206;BME280;1615;53.602;11.418;2023-07-08T01:12:34;101823.38;;;18.40;100.00
3206;BME280;1615;53.602;11.418;2023-07-08T01:15:03;101670.22;;;17.77;100.00
3206;BME280;1615;53.602;11.418;2023-07-08T01:17:29;101745.97;;;18.17;100.00
3206;BME280;1615;53.602;11.418;2023-07-08T01:19:59;101684.09;;;17.77;100.00
3206;BME280;1615;53.602;11.418;2023-07-08T01:22:24;101754.13;;;18.13;100.00
3206;BME280;1615;53.602;11.418;2023-07-08T01:24:50;101667.31;;;17.52;100.00
3206;BME280;1615;53.602;11.418;2023-07-08T01:27:18;101742.69;;;18.06;100.00
3206;BME280;1615;53.602;11.418;2023-07-08T01:29:45;101683.56;;;17.67;100.00
3206;BME280;1615;53.602;11.418;2023-07-08T01:32:13;101639.16;;;17.36;100.00
3206;BME280;1615;53.602;11.418;2023-07-08T01:34:43;101647.41;;;17.28;100.00
3206;BME280;1615;53.602;11.418;2023-07-08T01:37:18;101661.78;;;17.30;100.00
3206;BME280;1615;53.602;11.418;2023-07-08T01:39:43;101771.78;;;17.87;100.00
3206;BME280;1615;53.602;11.418;2023-07-08T01:42:09;101767.22;;;17.91;100.00
3206;BME280;1615;53.602;11.418;2023-07-08T01:44:36;101767.41;;;17.94;100.00
3206;BME280;1615;53.602;11.418;2023-07-08T01:47:09;101664.66;;;17.25;100.00
3206;BME280;1615;53.602;11.418;2023-07-08T01:49:37;101708.91;;;17.52;100.00
3206;BME280;1615;53.602;11.418;2023-07-08T01:52:04;101694.72;;;17.31;100.00
3206;BME280;1615;53.602;11.418;2023-07-08T01:54:31;101760.44;;;17.75;100.00
3206;BME280;1615;53.602;11.418;2023-07-08T01:56:57;101715.16;;;17.57;100.00
3206;BME280;1615;53.602;11.418;2023-07-08T01:59:23;101723.56;;;17.74;100.00
3206;BME280;1615;53.602;11.418;2023-07-08T02:01:48;101731.13;;;17.82;100.00
3206;BME280;1615;53.602;11.418;2023-07-08T02:04:15;101758.28;;;17.94;100.00
3206;BME280;1615;53.602;11.418;2023-07-08T02:06:40;101651.69;;;17.34;100.00
3206;BME280;1615;53.602;11.418;2023-07-08T02:09:07;101730.94;;;17.79;100.00
3206;BME280;1615;53.602;11.418;2023-07-08T02:11:32;101753.69;;;17.89;100.00
3206;BME280;1615;53.602;11.418;2023-07-08T02:13:57;101755.31;;;17.90;100.00
3206;BME280;1615;53.602;11.418;2023-07-08T02:16:23;101769.88;;;17.96;100.00
3206;BME280;1615;53.602;11.418;2023-07-08T02:18:48;101719.47;;;17.72;100.00
3206;BME280;1615;53.602;11.418;2023-07-08T02:21:13;101707.63;;;17.58;100.00
3206;BME280;1615;53.602;11.418;2023-07-08T02:23:39;101735.47;;;17.75;100.00
3206;BME280;1615;53.602;11.418;2023-07-08T02:26:04;101719.91;;;17.65;100.00
3206;BME280;1615;53.602;11.418;2023-07-08T02:28:29;101665.50;;;17.25;100.00
3206;BME280;1615;53.602;11.418;2023-07-08T02:30:55;101751.63;;;17.73;100.00
3206;BME280;1615;53.602;11.418;2023-07-08T02:33:20;101764.72;;;17.81;100.00
3206;BME280;1615;53.602;11.418;2023-07-08T02:35:46;101717.34;;;17.47;100.00
3206;BME280;1615;53.602;11.418;2023-07-08T02:38:11;101696.53;;;17.14;100.00
3206;BME280;1615;53.602;11.418;2023-07-08T02:40:36;101489.13;;;16.11;100.00
3206;BME280;1615;53.602;11.418;2023-07-08T02:43:01;101756.47;;;17.67;100.00
3206;BME280;1615;53.602;11.418;2023-07-08T02:45:27;101727.31;;;17.48;100.00
3206;BME280;1615;53.602;11.418;2023-07-08T02:47:52;101679.09;;;17.13;100.00
3206;BME280;1615;53.602;11.418;2023-07-08T02:50:17;101671.28;;;17.15;100.00
3206;BME280;1615;53.602;11.418;2023-07-08T02:52:44;101741.94;;;17.62;100.00
3206;BME280;1615;53.602;11.418;2023-07-08T02:55:09;101670.47;;;17.15;100.00
3206;BME280;1615;53.602;11.418;2023-07-08T02:57:34;101689.50;;;17.30;100.00
3206;BME280;1615;53.602;11.418;2023-07-08T02:59:59;101718.13;;;17.61;100.00
3206;BME280;1615;53.602;11.418;2023-07-08T03:02:26;101648.28;;;17.15;100.00
3206;BME280;1615;53.602;11.418;2023-07-08T03:04:51;101694.56;;;17.50;100.00
3206;BME280;1615;53.602;11.418;2023-07-08T03:07:19;101615.09;;;17.01;100.00
3206;BME280;1615;53.602;11.418;2023-07-08T03:09:44;101378.56;;;15.62;100.00
3206;BME280;1615;53.602;11.418;2023-07-08T03:12:11;101726.66;;;17.73;100.00
3206;BME280;1615;53.602;11.418;2023-07-08T03:14:37;101689.66;;;17.33;100.00
3206;BME280;1615;53.602;11.418;2023-07-08T03:17:03;101705.66;;;17.50;100.00
3206;BME280;1615;53.602;11.418;2023-07-08T03:19:29;101755.31;;;17.90;100.00
3206;BME280;1615;53.602;11.418;2023-07-08T03:21:54;101761.06;;;17.94;100.00
3206;BME280;1615;53.602;11.418;2023-07-08T03:24:20;101753.88;;;17.93;100.00
3206;BME280;1615;53.602;11.418;2023-07-08T03:26:46;101754.84;;;17.97;100.00
3206;BME280;1615;53.602;11.418;2023-07-08T03:29:15;101754.72;;;18.02;100.00
3206;BME280;1615;53.602;11.418;2023-07-08T03:31:40;101698.28;;;17.76;100.00
3206;BME280;1615;53.602;11.418;2023-07-08T03:34:08;101800.66;;;18.08;100.00
3206;BME280;1615;53.602;11.418;2023-07-08T03:36:37;101770.13;;;18.08;100.00
3206;BME280;1615;53.602;11.418;2023-07-08T03:39:05;101743.91;;;17.92;100.00
3206;BME280;1615;53.602;11.418;2023-07-08T03:41:30;101741.75;;;17.89;100.00
3206;BME280;1615;53.602;11.418;2023-07-08T03:43:56;101741.94;;;17.92;100.00
3206;BME280;1615;53.602;11.418;2023-07-08T03:46:21;101722.13;;;17.77;100.00
3206;BME280;1615;53.602;11.418;2023-07-08T03:48:48;101726.41;;;17.83;100.00
3206;BME280;1615;53.602;11.418;2023-07-08T03:51:22;101625.50;;;17.18;100.00
3206;BME280;1615;53.602;11.418;2023-07-08T03:53:49;101673.34;;;17.54;100.00
3206;BME280;1615;53.602;11.418;2023-07-08T03:56:14;101654.53;;;17.42;100.00
3206;BME280;1615;53.602;11.418;2023-07-08T03:58:41;101754.38;;;17.95;100.00
3206;BME280;1615;53.602;11.418;2023-07-08T04:01:14;101748.38;;;18.01;100.00
3206;BME280;1615;53.602;11.418;2023-07-08T04:03:40;101721.34;;;17.85;100.00
3206;BME280;1615;53.602;11.418;2023-07-08T04:06:05;101762.56;;;18.00;100.00
3206;BME280;1615;53.602;11.418;2023-07-08T04:08:31;101717.66;;;17.98;100.00
3206;BME280;1615;53.602;11.418;2023-07-08T04:10:56;101754.03;;;18.27;100.00
3206;BME280;1615;53.602;11.418;2023-07-08T04:13:21;101418.97;;;16.29;100.00
3206;BME280;1615;53.602;11.418;2023-07-08T04:15:52;101699.72;;;18.04;100.00
3206;BME280;1615;53.602;11.418;2023-07-08T04:18:20;101723.47;;;18.27;100.00
3206;BME280;1615;53.602;11.418;2023-07-08T04:20:45;101738.03;;;18.24;100.00
3206;BME280;1615;53.602;11.418;2023-07-08T04:23:20;101753.47;;;18.47;100.00
3206;BME280;1615;53.602;11.418;2023-07-08T04:25:48;101757.91;;;18.48;100.00
3206;BME280;1615;53.602;11.418;2023-07-08T04:28:14;101764.44;;;18.52;100.00
3206;BME280;1615;53.602;11.418;2023-07-08T04:30:41;101754.44;;;18.42;100.00
3206;BME280;1615;53.602;11.418;2023-07-08T04:33:08;101749.56;;;18.48;100.00
3206;BME280;1615;53.602;11.418;2023-07-08T04:35:34;101729.97;;;18.53;100.00
3206;BME280;1615;53.602;11.418;2023-07-08T04:38:00;101750.31;;;18.79;100.00
3206;BME280;1615;53.602;11.418;2023-07-08T04:40:26;101622.03;;;18.04;100.00
3206;BME280;1615;53.602;11.418;2023-07-08T04:42:52;101670.63;;;18.40;100.00
3206;BME280;1615;53.602;11.418;2023-07-08T04:45:18;101727.75;;;18.89;100.00
3206;BME280;1615;53.602;11.418;2023-07-08T04:47:44;101743.13;;;19.12;100.00
3206;BME280;1615;53.602;11.418;2023-07-08T04:50:12;101673.28;;;18.62;100.00
3206;BME280;1615;53.602;11.418;2023-07-08T04:52:38;101741.53;;;19.28;100.00
3206;BME280;1615;53.602;11.418;2023-07-08T04:55:03;101663.69;;;18.94;100.00
3206;BME280;1615;53.602;11.418;2023-07-08T04:57:29;101597.97;;;18.64;100.00
3206;BME280;1615;53.602;11.418;2023-07-08T04:59:54;101717.00;;;19.47;100.00
3206;BME280;1615;53.602;11.418;2023-07-08T05:02:19;101723.47;;;19.76;100.00
3206;BME280;1615;53.602;11.418;2023-07-08T05:04:45;101637.81;;;19.19;100.00
3206;BME280;1615;53.602;11.418;2023-07-08T05:07:10;101718.06;;;19.80;100.00
3206;BME280;1615;53.602;11.418;2023-07-08T05:09:35;101723.06;;;20.12;97.65
3206;BME280;1615;53.602;11.418;2023-07-08T05:12:01;101720.84;;;20.26;95.39
3206;BME280;1615;53.602;11.418;2023-07-08T05:14:26;101733.88;;;20.42;93.47
3206;BME280;1615;53.602;11.418;2023-07-08T05:16:51;101734.34;;;20.73;91.45
3206;BME280;1615;53.602;11.418;2023-07-08T05:19:17;101619.84;;;20.17;89.76
3206;BME280;1615;53.602;11.418;2023-07-08T05:21:43;101742.84;;;21.06;88.37
3206;BME280;1615;53.602;11.418;2023-07-08T05:24:10;101697.94;;;20.99;85.76
3206;BME280;1615;53.602;11.418;2023-07-08T05:26:35;101746.22;;;21.32;83.86
3206;BME280;1615;53.602;11.418;2023-07-08T05:29:01;101735.69;;;21.37;81.41
3206;BME280;1615;53.602;11.418;2023-07-08T05:31:26;101575.28;;;20.58;81.76
3206;BME280;1615;53.602;11.418;2023-07-08T05:33:51;101703.06;;;21.50;79.81
3206;BME280;1615;53.602;11.418;2023-07-08T05:36:17;101721.19;;;21.76;78.55
3206;BME280;1615;53.602;11.418;2023-07-08T05:38:42;101713.69;;;21.89;77.21
3206;BME280;1615;53.602;11.418;2023-07-08T05:41:07;101710.88;;;22.01;76.09
3206;BME280;1615;53.602;11.418;2023-07-08T05:43:33;101712.28;;;22.07;72.74
3206;BME280;1615;53.602;11.418;2023-07-08T05:45:59;101527.31;;;21.17;72.17
3206;BME280;1615;53.602;11.418;2023-07-08T05:48:25;101720.50;;;22.60;71.27
3206;BME280;1615;53.602;11.418;2023-07-08T05:50:50;101731.91;;;22.67;70.28
3206;BME280;1615;53.602;11.418;2023-07-08T05:53:18;101579.41;;;21.94;69.83
3206;BME280;1615;53.602;11.418;2023-07-08T05:55:44;101726.97;;;23.00;67.55
3206;BME280;1615;53.602;11.418;2023-07-08T05:58:09;101726.91;;;23.12;66.74
3206;BME280;1615;53.602;11.418;2023-07-08T06:00:35;101626.38;;;22.64;66.39
3206;BME280;1615;53.602;11.418;2023-07-08T06:03:00;101677.47;;;23.16;65.25
3206;BME280;1615;53.602;11.418;2023-07-08T06:05:26;101741.03;;;23.55;64.45
3206;BME280;1615;53.602;11.418;2023-07-08T06:07:51;101709.31;;;23.51;64.25
3206;BME280;1615;53.602;11.418;2023-07-08T06:10:16;101660.16;;;23.38;63.74
3206;BME280;1615;53.602;11.418;2023-07-08T06:12:42;101741.81;;;23.83;62.58
3206;BME280;1615;53.602;11.418;2023-07-08T06:15:07;101729.66;;;23.91;62.58
3206;BME280;1615;53.602;11.418;2023-07-08T06:17:32;101723.44;;;23.97;61.51
3206;BME280;1615;53.602;11.418;2023-07-08T06:19:58;101688.66;;;23.71;60.14
3206;BME280;1615;53.602;11.418;2023-07-08T06:22:23;101687.03;;;23.70;60.10
3206;BME280;1615;53.602;11.418;2023-07-08T06:24:48;101732.81;;;23.89;59.96
3206;BME280;1615;53.602;11.418;2023-07-08T06:27:14;101728.47;;;23.92;59.98
3206;BME280;1615;53.602;11.418;2023-07-08T06:29:39;101707.31;;;23.79;59.88
3206;BME280;1615;53.602;11.418;2023-07-08T06:32:05;101663.13;;;23.45;59.79
3206;BME280;1615;53.602;11.418;2023-07-08T06:34:31;101732.63;;;23.98;60.40
3206;BME280;1615;53.602;11.418;2023-07-08T06:36:56;101711.06;;;23.98;60.52
3206;BME280;1615;53.602;11.418;2023-07-08T06:39:21;101729.31;;;24.23;59.64
3206;BME280;1615;53.602;11.418;2023-07-08T06:41:46;101708.25;;;24.14;59.07
3206;BME280;1615;53.602;11.418;2023-07-08T06:44:12;101529.66;;;22.90;59.12
3206;BME280;1615;53.602;11.418;2023-07-08T06:46:37;101560.16;;;23.23;60.15
3206;BME280;1615;53.602;11.418;2023-07-08T06:49:03;101714.13;;;24.24;59.82
3206;BME280;1615;53.602;11.418;2023-07-08T06:51:28;101728.31;;;24.31;57.97
3206;BME280;1615;53.602;11.418;2023-07-08T06:53:53;101736.28;;;24.29;56.95
3206;BME280;1615;53.602;11.418;2023-07-08T06:56:19;101724.25;;;24.29;57.54
3206;BME280;1615;53.602;11.418;2023-07-08T06:58:44;101697.13;;;24.17;56.63
3206;BME280;1615;53.602;11.418;2023-07-08T07:01:10;101730.50;;;24.38;57.97
3206;BME280;1615;53.602;11.418;2023-07-08T07:03:35;101639.34;;;23.82;57.15
3206;BME280;1615;53.602;11.418;2023-07-08T07:06:00;101703.72;;;24.25;56.68
3206;BME280;1615;53.602;11.418;2023-07-08T07:08:25;101686.91;;;24.25;56.86
3206;BME280;1615;53.602;11.418;2023-07-08T07:10:51;101721.22;;;24.53;58.52
3206;BME280;1615;53.602;11.418;2023-07-08T07:13:16;101711.03;;;24.60;58.71
3206;BME280;1615;53.602;11.418;2023-07-08T07:15:41;101564.44;;;23.79;57.66
3206;BME280;1615;53.602;11.418;2023-07-08T07:18:07;101714.31;;;24.62;58.07
3206;BME280;1615;53.602;11.418;2023-07-08T07:20:33;101707.88;;;24.62;59.61
3206;BME280;1615;53.602;11.418;2023-07-08T07:22:58;101652.00;;;24.38;59.61
3206;BME280;1615;53.602;11.418;2023-07-08T07:25:24;101714.53;;;24.73;58.12
3206;BME280;1615;53.602;11.418;2023-07-08T07:27:50;101681.97;;;24.53;58.71
3206;BME280;1615;53.602;11.418;2023-07-08T07:30:16;101712.56;;;24.73;58.38
3206;BME280;1615;53.602;11.418;2023-07-08T07:32:44;101717.88;;;24.78;59.16
3206;BME280;1615;53.602;11.418;2023-07-08T07:35:10;101622.00;;;24.23;58.70
3206;BME280;1615;53.602;11.418;2023-07-08T07:37:38;101684.88;;;24.72;58.81
3206;BME280;1615;53.602;11.418;2023-07-08T07:40:09;101545.63;;;23.79;58.57
3206;BME280;1615;53.602;11.418;2023-07-08T07:42:40;101634.03;;;24.58;58.85
3206;BME280;1615;53.602;11.418;2023-07-08T07:45:07;101711.28;;;25.05;57.22
3206;BME280;1615;53.602;11.418;2023-07-08T07:47:32;101635.47;;;24.67;57.29
3206;BME280;1615;53.602;11.418;2023-07-08T07:49:58;101632.59;;;24.64;57.46
3206;BME280;1615;53.602;11.418;2023-07-08T07:52:24;101697.91;;;24.99;57.44
3206;BME280;1615;53.602;11.418;2023-07-08T07:54:54;101709.31;;;25.25;57.54
3206;BME280;1615;53.602;11.418;2023-07-08T07:57:21;101742.28;;;25.28;57.88
3206;BME280;1615;53.602;11.418;2023-07-08T07:59:46;101588.69;;;24.56;58.11
3206;BME280;1615;53.602;11.418;2023-07-08T08:02:14;101690.00;;;25.23;57.70
3206;BME280;1615;53.602;11.418;2023-07-08T08:04:39;101622.13;;;24.80;57.67
3206;BME280;1615;53.602;11.418;2023-07-08T08:07:04;101698.09;;;25.25;57.16
3206;BME280;1615;53.602;11.418;2023-07-08T08:09:30;101710.34;;;25.36;56.97
3206;BME280;1615;53.602;11.418;2023-07-08T08:11:56;101649.59;;;25.09;56.76
3206;BME280;1615;53.602;11.418;2023-07-08T08:14:22;101689.44;;;25.33;56.45
3206;BME280;1615;53.602;11.418;2023-07-08T08:16:47;101687.88;;;25.36;56.62
3206;BME280;1615;53.602;11.418;2023-07-08T08:19:13;101715.50;;;25.53;55.98
3206;BME280;1615;53.602;11.418;2023-07-08T08:21:38;101649.47;;;25.02;55.50
3206;BME280;1615;53.602;11.418;2023-07-08T08:24:04;101704.16;;;25.46;55.54
3206;BME280;1615;53.602;11.418;2023-07-08T08:26:29;101689.66;;;25.44;54.49
3206;BME280;1615;53.602;11.418;2023-07-08T08:28:55;101654.63;;;25.19;54.42
3206;BME280;1615;53.602;11.418;2023-07-08T08:31:20;101643.09;;;25.24;54.52
3206;BME280;1615;53.602;11.418;2023-07-08T08:33:46;101718.59;;;25.67;53.77
3206;BME280;1615;53.602;11.418;2023-07-08T08:36:11;101715.72;;;25.63;53.73
3206;BME280;1615;53.602;11.418;2023-07-08T08:38:37;101678.56;;;25.51;53.35
3206;BME280;1615;53.602;11.418;2023-07-08T08:41:21;101668.88;;;25.48;53.22
3206;BME280;1615;53.602;11.418;2023-07-08T08:43:49;101676.88;;;25.69;52.25
3206;BME280;1615;53.602;11.418;2023-07-08T08:46:38;101704.50;;;26.05;50.92
3206;BME280;1615;53.602;11.418;2023-07-08T08:49:05;101701.38;;;26.10;50.41
3206;BME280;1615;53.602;11.418;2023-07-08T08:51:33;101681.25;;;26.08;50.26
3206;BME280;1615;53.602;11.418;2023-07-08T08:53:59;101708.03;;;26.24;49.28
3206;BME280;1615;53.602;11.418;2023-07-08T08:57:31;101705.34;;;26.31;49.13
3206;BME280;1615;53.602;11.418;2023-07-08T08:59:29;101702.16;;;26.33;48.65
3206;BME280;1615;53.602;11.418;2023-07-08T09:02:22;101632.81;;;25.92;47.62
3206;BME280;1615;53.602;11.418;2023-07-08T09:04:49;101658.78;;;26.08;46.92
3206;BME280;1615;53.602;11.418;2023-07-08T09:07:17;101700.31;;;26.44;46.25
3206;BME280;1615;53.602;11.418;2023-07-08T09:12:25;101690.69;;;26.45;46.66
3206;BME280;1615;53.602;11.418;2023-07-08T09:14:52;101688.44;;;26.54;46.62
3206;BME280;1615;53.602;11.418;2023-07-08T09:17:23;101691.13;;;26.69;46.48
3206;BME280;1615;53.602;11.418;2023-07-08T09:19:54;101696.94;;;26.83;46.03
3206;BME280;1615;53.602;11.418;2023-07-08T09:22:36;101653.22;;;26.63;45.59
3206;BME280;1615;53.602;11.418;2023-07-08T09:27:45;101662.00;;;26.58;46.52
3206;BME280;1615;53.602;11.418;2023-07-08T09:30:16;101692.63;;;26.93;47.00
3206;BME280;1615;53.602;11.418;2023-07-08T09:32:42;101686.63;;;26.94;46.69
3206;BME280;1615;53.602;11.418;2023-07-08T09:35:09;101485.19;;;25.79;46.56
3206;BME280;1615;53.602;11.418;2023-07-08T09:37:37;101686.84;;;27.08;46.14
3206;BME280;1615;53.602;11.418;2023-07-08T09:42:44;101679.63;;;27.11;44.75
3206;BME280;1615;53.602;11.418;2023-07-08T09:45:16;101581.09;;;26.52;44.82
3206;BME280;1615;53.602;11.418;2023-07-08T09:47:43;101632.34;;;26.94;44.96
3206;BME280;1615;53.602;11.418;2023-07-08T09:50:22;101669.44;;;27.32;43.56
3206;BME280;1615;53.602;11.418;2023-07-08T09:52:49;101667.78;;;27.28;43.23
3206;BME280;1615;53.602;11.418;2023-07-08T09:55:16;101711.84;;;27.43;43.02
3206;BME280;1615;53.602;11.418;2023-07-08T09:57:43;101598.16;;;26.95;43.13
3206;BME280;1615;53.602;11.418;2023-07-08T10:00:17;101690.66;;;27.56;43.29
3206;BME280;1615;53.602;11.418;2023-07-08T10:02:49;101684.25;;;27.59;43.37
3206;BME280;1615;53.602;11.418;2023-07-08T10:05:19;101656.78;;;27.49;43.69
3206;BME280;1615;53.602;11.418;2023-07-08T10:07:47;101687.19;;;27.69;43.15
3206;BME280;1615;53.602;11.418;2023-07-08T10:10:19;101677.47;;;27.67;42.54
3206;BME280;1615;53.602;11.418;2023-07-08T10:12:55;101692.44;;;27.71;43.19
3206;BME280;1615;53.602;11.418;2023-07-08T10:15:37;101568.25;;;26.80;43.05
3206;BME280;1615;53.602;11.418;2023-07-08T10:18:03;101528.19;;;26.61;42.96
3206;BME280;1615;53.602;11.418;2023-07-08T10:20:38;101643.72;;;27.34;43.08
3206;BME280;1615;53.602;11.418;2023-07-08T10:23:34;101678.88;;;27.80;42.44
3206;BME280;1615;53.602;11.418;2023-07-08T10:26:12;101611.63;;;27.42;41.93
3206;BME280;1615;53.602;11.418;2023-07-08T10:28:48;101573.53;;;27.18;42.53
3206;BME280;1615;53.602;11.418;2023-07-08T10:31:31;101681.91;;;28.01;42.27
3206;BME280;1615;53.602;11.418;2023-07-08T10:36:48;101610.13;;;27.55;41.51
3206;BME280;1615;53.602;11.418;2023-07-08T10:53:35;101671.78;;;27.96;41.08
3206;BME280;1615;53.602;11.418;2023-07-08T10:56:19;101667.72;;;27.94;41.20
3206;BME280;1615;53.602;11.418;2023-07-08T10:58:55;101641.91;;;27.88;41.76
3206;BME280;1615;53.602;11.418;2023-07-08T11:01:53;101589.28;;;27.63;42.01
3206;BME280;1615;53.602;11.418;2023-07-08T11:04:26;101657.47;;;28.19;41.26
3206;BME280;1615;53.602;11.418;2023-07-08T11:07:22;101597.53;;;27.82;41.07
3206;BME280;1615;53.602;11.418;2023-07-08T11:09:55;101571.22;;;27.67;39.91
3206;BME280;1615;53.602;11.418;2023-07-08T11:12:31;101649.41;;;28.21;40.10
3206;BME280;1615;53.602;11.418;2023-07-08T11:17:38;101602.63;;;28.16;40.07
3206;BME280;1615;53.602;11.418;2023-07-08T11:20:16;101640.00;;;28.50;40.12
3206;BME280;1615;53.602;11.418;2023-07-08T11:26:03;101522.09;;;27.72;39.35
3206;BME280;1615;53.602;11.418;2023-07-08T11:28:30;101646.38;;;28.40;38.82
3206;BME280;1615;53.602;11.418;2023-07-08T11:30:58;101639.84;;;28.36;39.07
3206;BME280;1615;53.602;11.418;2023-07-08T11:33:26;101636.69;;;28.41;39.39
3206;BME280;1615;53.602;11.418;2023-07-08T11:35:53;101637.56;;;28.52;39.25
3206;BME280;1615;53.602;11.418;2023-07-08T11:38:24;101600.75;;;28.34;39.21
3206;BME280;1615;53.602;11.418;2023-07-08T11:41:14;101635.25;;;28.71;39.33
3206;BME280;1615;53.602;11.418;2023-07-08T11:44:18;101619.16;;;28.72;38.77
3206;BME280;1615;53.602;11.418;2023-07-08T11:46:54;101634.97;;;28.90;37.71
3206;BME280;1615;53.602;11.418;2023-07-08T11:49:20;101617.50;;;28.64;38.07
3206;BME280;1615;53.602;11.418;2023-07-08T11:51:46;101503.41;;;28.00;37.48
3206;BME280;1615;53.602;11.418;2023-07-08T11:54:17;101570.50;;;28.31;37.25
3206;BME280;1615;53.602;11.418;2023-07-08T11:56:49;101628.00;;;28.67;38.39
3206;BME280;1615;53.602;11.418;2023-07-08T11:59:18;101634.53;;;28.85;38.07
3206;BME280;1615;53.602;11.418;2023-07-08T12:04:17;101617.63;;;28.92;37.09
3206;BME280;1615;53.602;11.418;2023-07-08T12:06:48;101610.31;;;28.84;37.94
3206;BME280;1615;53.602;11.418;2023-07-08T12:09:26;101621.72;;;28.98;38.07
3206;BME280;1615;53.602;11.418;2023-07-08T12:11:58;101616.09;;;29.05;37.57
3206;BME280;1615;53.602;11.418;2023-07-08T12:14:25;101503.53;;;28.18;36.38
3206;BME280;1615;53.602;11.418;2023-07-08T12:16:52;101620.13;;;28.97;36.55
3206;BME280;1615;53.602;11.418;2023-07-08T12:19:18;101623.75;;;29.01;36.04
3206;BME280;1615;53.602;11.418;2023-07-08T12:21:45;101553.78;;;28.66;36.01
3206;BME280;1615;53.602;11.418;2023-07-08T12:24:13;101601.19;;;29.04;35.46
3206;BME280;1615;53.602;11.418;2023-07-08T12:26:39;101609.69;;;29.22;35.03
3206;BME280;1615;53.602;11.418;2023-07-08T12:29:05;101615.34;;;29.22;34.61
3206;BME280;1615;53.602;11.418;2023-07-08T12:31:31;101601.22;;;29.22;33.98
3206;BME280;1615;53.602;11.418;2023-07-08T12:33:58;101599.59;;;29.24;34.95
3206;BME280;1615;53.602;11.418;2023-07-08T12:36:28;101535.28;;;28.72;35.39
3206;BME280;1615;53.602;11.418;2023-07-08T12:38:56;101581.03;;;29.13;35.26
3206;BME280;1615;53.602;11.418;2023-07-08T12:41:34;101534.56;;;29.00;35.17
3206;BME280;1615;53.602;11.418;2023-07-08T12:44:01;101515.97;;;28.88;35.61
3206;BME280;1615;53.602;11.418;2023-07-08T12:46:28;101595.22;;;29.48;34.32
3206;BME280;1615;53.602;11.418;2023-07-08T12:48:53;101544.25;;;29.06;35.41
3206;BME280;1615;53.602;11.418;2023-07-08T12:51:23;101594.81;;;29.53;34.93
3206;BME280;1615;53.602;11.418;2023-07-08T12:53:50;101594.44;;;29.47;33.83
3206;BME280;1615;53.602;11.418;2023-07-08T12:56:17;101594.44;;;29.51;34.68
3206;BME280;1615;53.602;11.418;2023-07-08T12:58:46;101590.38;;;29.52;34.84
3206;BME280;1615;53.602;11.418;2023-07-08T13:01:22;101533.00;;;29.20;35.17
3206;BME280;1615;53.602;11.418;2023-07-08T13:03:49;101593.22;;;29.45;35.12
3206;BME280;1615;53.602;11.418;2023-07-08T13:06:17;101583.09;;;29.37;35.14
3206;BME280;1615;53.602;11.418;2023-07-08T13:08:45;101568.56;;;29.35;35.64
3206;BME280;1615;53.602;11.418;2023-07-08T13:11:13;101576.22;;;29.38;35.91
3206;BME280;1615;53.602;11.418;2023-07-08T13:13:49;101575.03;;;29.46;36.98
3206;BME280;1615;53.602;11.418;2023-07-08T13:16:15;101529.78;;;29.28;36.97
3206;BME280;1615;53.602;11.418;2023-07-08T13:18:41;101537.09;;;29.36;36.25
3206;BME280;1615;53.602;11.418;2023-07-08T13:21:11;101576.72;;;29.57;36.99
3206;BME280;1615;53.602;11.418;2023-07-08T13:23:38;101574.66;;;29.44;36.75
3206;BME280;1615;53.602;11.418;2023-07-08T13:26:14;101576.63;;;29.33;36.89
3206;BME280;1615;53.602;11.418;2023-07-08T13:28:40;101544.31;;;29.20;36.99
3206;BME280;1615;53.602;11.418;2023-07-08T13:31:19;101570.19;;;29.39;36.22
3206;BME280;1615;53.602;11.418;2023-07-08T13:33:47;101567.78;;;29.41;37.26
3206;BME280;1615;53.602;11.418;2023-07-08T13:36:15;101562.13;;;29.52;36.67